createdAt,value
2018-08-19T00:01:31.657Z,99.90
2018-08-19T00:04:00.574Z,99.90
2018-08-19T00:06:29.551Z,99.90
2018-08-19T00:09:02.735Z,99.90
2018-08-19T00:11:31.721Z,99.90
2018-08-19T00:14:00.662Z,99.90
2018-08-19T00:16:29.616Z,99.90
2018-08-19T00:18:58.576Z,99.90
2018-08-19T00:21:27.549Z,99.90
2018-08-19T00:23:56.544Z,99.90
2018-08-19T00:26:25.464Z,99.90
2018-08-19T00:28:54.484Z,99.90
2018-08-19T00:31:23.509Z,99.90
2018-08-19T00:33:52.486Z,99.90
2018-08-19T00:36:28.923Z,99.90
2018-08-19T00:38:57.912Z,99.90
2018-08-19T00:41:26.922Z,99.90
2018-08-19T00:43:55.802Z,99.90
2018-08-19T00:46:28.580Z,99.90
2018-08-19T00:48:58.121Z,99.90
2018-08-19T00:51:27.192Z,99.90
2018-08-19T00:53:56.528Z,99.90
2018-08-19T00:56:25.544Z,99.90
2018-08-19T00:58:54.723Z,99.90
2018-08-19T01:01:35.044Z,99.90
2018-08-19T01:04:06.566Z,99.90
2018-08-19T01:06:40.993Z,99.90
2018-08-19T01:09:10.735Z,99.90
2018-08-19T01:11:41.884Z,99.90
2018-08-19T01:14:14.667Z,99.90
2018-08-19T01:16:44.662Z,99.90
2018-08-19T01:19:14.676Z,99.90
2018-08-19T01:21:43.592Z,99.90
2018-08-19T01:24:12.637Z,99.90
2018-08-19T01:26:42.435Z,99.90
2018-08-19T01:29:12.038Z,99.90
2018-08-19T01:31:41.024Z,99.90
2018-08-19T01:34:11.136Z,99.90
2018-08-19T01:36:40.076Z,99.90
2018-08-19T01:39:10.713Z,99.90
2018-08-19T01:41:40.439Z,99.90
2018-08-19T01:44:10.731Z,99.90
2018-08-19T01:46:44.973Z,99.90
2018-08-19T01:49:13.955Z,99.90
2018-08-19T01:51:43.968Z,99.90
2018-08-19T01:54:18.171Z,99.90
2018-08-19T01:56:50.603Z,99.90
2018-08-19T01:59:19.537Z,99.90
2018-08-19T02:01:50.472Z,99.90
2018-08-19T02:04:19.945Z,99.90
2018-08-19T02:06:48.884Z,99.90
2018-08-19T02:09:18.748Z,99.90
2018-08-19T02:11:49.443Z,99.90
2018-08-19T02:14:19.128Z,99.90
2018-08-19T02:16:48.892Z,99.90
2018-08-19T02:19:17.855Z,99.90
2018-08-19T02:21:47.553Z,99.90
2018-08-19T02:24:16.869Z,99.90
2018-08-19T02:26:45.776Z,99.90
2018-08-19T02:29:30.540Z,99.90
2018-08-19T02:32:01.491Z,99.90
2018-08-19T02:34:31.590Z,99.90
2018-08-19T02:37:05.783Z,99.90
2018-08-19T02:39:37.284Z,99.90
2018-08-19T02:42:22.173Z,99.90
2018-08-19T02:44:52.700Z,99.90
2018-08-19T02:47:21.729Z,99.90
2018-08-19T02:49:50.824Z,99.90
2018-08-19T02:52:36.143Z,99.90
2018-08-19T02:55:06.780Z,99.90
2018-08-19T02:57:37.925Z,99.90
2018-08-19T03:00:07.932Z,99.90
2018-08-19T03:02:38.136Z,99.90
2018-08-19T03:05:10.367Z,99.90
2018-08-19T03:07:39.283Z,99.90
2018-08-19T03:10:13.995Z,99.90
2018-08-19T03:12:43.359Z,99.90
2018-08-19T03:15:13.338Z,99.90
2018-08-19T03:17:42.860Z,99.90
2018-08-19T03:20:13.072Z,99.90
2018-08-19T03:22:42.324Z,99.90
2018-08-19T03:25:11.590Z,99.90
2018-08-19T03:27:40.543Z,99.90
2018-08-19T03:30:12.630Z,99.90
2018-08-19T03:33:13.515Z,99.90
2018-08-19T03:35:42.464Z,99.90
2018-08-19T03:38:13.253Z,99.90
2018-08-19T03:40:42.182Z,99.90
2018-08-19T03:43:11.733Z,99.90
2018-08-19T03:45:40.682Z,99.90
2018-08-19T03:48:09.624Z,99.90
2018-08-19T03:50:38.552Z,99.90
2018-08-19T03:53:07.492Z,99.90
2018-08-19T03:55:38.534Z,99.90
2018-08-19T03:58:08.675Z,99.90
2018-08-19T04:00:39.057Z,99.90
2018-08-19T04:03:27.517Z,99.90
2018-08-19T04:05:57.652Z,99.90
2018-08-19T04:08:31.496Z,99.90
2018-08-19T04:11:00.588Z,99.90
2018-08-19T04:13:39.664Z,99.90
2018-08-19T04:16:09.581Z,99.90
2018-08-19T04:18:39.830Z,99.90
2018-08-19T04:21:10.039Z,99.90
2018-08-19T04:23:41.273Z,99.90
2018-08-19T04:26:10.195Z,99.90
2018-08-19T04:28:40.136Z,99.90
2018-08-19T04:31:24.553Z,99.90
2018-08-19T04:33:54.304Z,99.90
2018-08-19T04:36:24.448Z,99.90
2018-08-19T04:38:53.363Z,99.90
2018-08-19T04:41:22.360Z,99.90
2018-08-19T04:43:51.481Z,99.90
2018-08-19T04:46:20.428Z,99.90
2018-08-19T04:48:49.467Z,99.90
2018-08-19T04:51:18.420Z,99.90
2018-08-19T04:53:47.371Z,99.90
2018-08-19T04:56:16.327Z,99.90
2018-08-19T04:58:45.332Z,99.90
2018-08-19T05:01:14.412Z,99.90
2018-08-19T05:03:44.189Z,99.90
2018-08-19T05:06:13.224Z,99.90
2018-08-19T05:08:42.252Z,99.90
2018-08-19T05:11:11.191Z,99.90
2018-08-19T05:13:40.134Z,99.90
2018-08-19T05:16:09.130Z,99.90
2018-08-19T05:18:38.102Z,99.90
2018-08-19T05:21:12.340Z,99.90
2018-08-19T05:23:41.272Z,99.90
2018-08-19T05:26:12.364Z,99.90
2018-08-19T05:28:41.348Z,99.90
2018-08-19T05:31:10.324Z,99.90
2018-08-19T05:33:41.971Z,99.90
2018-08-19T05:36:10.984Z,99.90
2018-08-19T05:38:39.923Z,99.90
2018-08-19T05:41:10.131Z,99.90
2018-08-19T05:43:39.188Z,99.90
2018-08-19T05:46:08.123Z,99.90
2018-08-19T05:48:37.071Z,99.90
2018-08-19T05:51:06.040Z,99.90
2018-08-19T05:53:35.255Z,99.90
2018-08-19T05:56:04.184Z,99.90
2018-08-19T05:58:33.160Z,99.90
2018-08-19T06:01:02.160Z,99.90
2018-08-19T06:03:31.133Z,99.90
2018-08-19T06:06:00.097Z,99.90
2018-08-19T06:08:29.106Z,99.90
2018-08-19T06:10:58.252Z,99.90
2018-08-19T06:13:28.265Z,99.90
2018-08-19T06:15:57.230Z,99.90
2018-08-19T06:18:26.208Z,99.90
2018-08-19T06:20:55.203Z,99.90
2018-08-19T06:23:24.185Z,99.90
2018-08-19T06:25:53.124Z,99.90
2018-08-19T06:28:22.056Z,99.90
2018-08-19T06:30:51.088Z,99.90
2018-08-19T06:33:20.065Z,99.90
2018-08-19T06:35:49.088Z,99.90
2018-08-19T06:38:18.004Z,99.90
2018-08-19T06:40:46.962Z,99.90
2018-08-19T06:43:15.960Z,99.90
2018-08-19T06:45:44.911Z,99.90
2018-08-19T06:48:13.926Z,99.90
2018-08-19T06:50:42.938Z,99.90
2018-08-19T06:53:17.324Z,99.90
2018-08-19T06:55:46.371Z,99.90
2018-08-19T06:58:15.443Z,99.90
2018-08-19T07:00:44.371Z,99.90
2018-08-19T07:03:13.447Z,99.90
2018-08-19T07:05:42.288Z,99.90
2018-08-19T07:08:11.345Z,99.90
2018-08-19T07:10:41.535Z,99.90
2018-08-19T07:13:13.349Z,99.90
2018-08-19T07:15:43.423Z,99.90
2018-08-19T07:18:14.810Z,99.90
2018-08-19T07:20:44.475Z,99.90
2018-08-19T07:23:13.640Z,99.90
2018-08-19T07:25:43.912Z,99.90
2018-08-19T07:28:14.085Z,99.90
2018-08-19T07:30:43.382Z,99.90
2018-08-19T07:33:12.909Z,99.90
2018-08-19T07:35:41.880Z,99.90
2018-08-19T07:38:10.897Z,99.90
2018-08-19T07:40:39.836Z,99.90
2018-08-19T07:43:08.869Z,99.30
2018-08-19T07:45:37.895Z,99.60
2018-08-19T07:48:07.072Z,98.00
2018-08-19T07:50:36.079Z,98.30
2018-08-19T07:53:05.123Z,98.00
2018-08-19T07:55:34.166Z,97.90
2018-08-19T07:58:03.109Z,97.10
2018-08-19T08:00:37.524Z,97.50
2018-08-19T08:03:07.633Z,97.50
2018-08-19T08:05:41.861Z,97.40
2018-08-19T08:08:10.837Z,96.40
2018-08-19T08:10:39.900Z,97.50
2018-08-19T08:13:09.975Z,96.00
2018-08-19T08:15:44.377Z,94.30
2018-08-19T08:18:13.880Z,94.70
2018-08-19T08:20:42.984Z,95.30
2018-08-19T08:23:18.166Z,95.60
2018-08-19T08:25:47.219Z,95.60
2018-08-19T08:28:16.179Z,94.80
2018-08-19T08:30:45.219Z,94.40
2018-08-19T08:33:14.185Z,94.80
2018-08-19T08:35:48.579Z,93.70
2018-08-19T08:38:17.550Z,94.30
2018-08-19T08:40:46.676Z,93.90
2018-08-19T08:43:15.479Z,93.90
2018-08-19T08:45:44.568Z,93.80
2018-08-19T08:48:13.548Z,93.10
2018-08-19T08:50:42.527Z,93.20
2018-08-19T08:53:11.629Z,93.50
2018-08-19T08:55:40.652Z,94.50
2018-08-19T08:58:09.641Z,94.20
2018-08-19T09:00:38.569Z,94.50
2018-08-19T09:03:07.811Z,93.50
2018-08-19T09:05:36.713Z,93.80
2018-08-19T09:08:05.671Z,94.10
2018-08-19T09:10:34.665Z,94.40
2018-08-19T09:13:03.704Z,95.20
2018-08-19T09:15:32.728Z,95.20
2018-08-19T09:18:01.738Z,94.60
2018-08-19T09:20:30.680Z,94.70
2018-08-19T09:22:59.662Z,94.70
2018-08-19T09:25:28.634Z,94.80
2018-08-19T09:27:57.640Z,95.50
2018-08-19T09:30:35.464Z,95.50
2018-08-19T09:33:04.602Z,95.30
2018-08-19T09:35:34.784Z,94.70
2018-08-19T09:38:10.144Z,94.10
2018-08-19T09:40:39.134Z,94.70
2018-08-19T09:43:08.895Z,94.70
2018-08-19T09:45:38.156Z,94.30
2018-08-19T09:48:07.708Z,93.80
2018-08-19T09:50:37.552Z,93.20
2018-08-19T09:53:06.520Z,94.10
2018-08-19T09:55:41.296Z,93.60
2018-08-19T09:58:12.130Z,93.50
2018-08-19T10:00:46.644Z,94.50
2018-08-19T10:03:15.715Z,93.20
2018-08-19T10:05:44.649Z,93.60
2018-08-19T10:08:13.557Z,93.80
2018-08-19T10:10:42.468Z,92.40
2018-08-19T10:13:11.472Z,92.00
2018-08-19T10:15:41.025Z,91.80
2018-08-19T10:18:10.003Z,92.10
2018-08-19T10:20:38.987Z,93.40
2018-08-19T10:23:08.263Z,92.60
2018-08-19T10:25:37.248Z,92.10
2018-08-19T10:28:06.399Z,91.30
2018-08-19T10:30:38.139Z,91.30
2018-08-19T10:33:09.025Z,91.30
2018-08-19T10:35:38.094Z,91.60
2018-08-19T10:38:07.000Z,91.50
2018-08-19T10:40:35.946Z,91.70
2018-08-19T10:43:07.130Z,91.30
2018-08-19T10:45:39.855Z,90.50
2018-08-19T10:48:11.077Z,91.40
2018-08-19T10:50:40.151Z,90.80
2018-08-19T10:53:15.553Z,90.10
2018-08-19T10:55:45.269Z,91.20
2018-08-19T10:58:14.288Z,90.90
2018-08-19T11:00:43.236Z,91.50
2018-08-19T11:03:16.469Z,91.80
2018-08-19T11:05:46.412Z,90.80
2018-08-19T11:08:15.476Z,89.20
2018-08-19T11:10:44.469Z,89.80
2018-08-19T11:13:17.028Z,89.60
2018-08-19T11:16:01.042Z,87.90
2018-08-19T11:18:41.232Z,89.10
2018-08-19T11:21:14.865Z,86.70
2018-08-19T11:23:46.016Z,89.60
2018-08-19T11:26:15.146Z,90.70
2018-08-19T11:28:46.057Z,90.50
2018-08-19T11:31:21.657Z,90.50
2018-08-19T11:33:51.457Z,88.30
2018-08-19T11:36:21.874Z,88.50
2018-08-19T11:38:53.097Z,91.20
2018-08-19T11:41:22.027Z,90.00
2018-08-19T11:43:51.320Z,90.40
2018-08-19T11:46:20.475Z,89.50
2018-08-19T11:48:54.815Z,90.70
2018-08-19T11:51:39.314Z,87.50
2018-08-19T11:54:09.139Z,86.50
2018-08-19T11:56:38.112Z,84.90
2018-08-19T11:59:07.384Z,83.70
2018-08-19T12:01:36.400Z,83.90
2018-08-19T12:04:09.408Z,84.20
2018-08-19T12:06:38.364Z,82.30
2018-08-19T12:09:08.947Z,83.30
2018-08-19T12:11:39.243Z,80.50
2018-08-19T12:14:09.996Z,79.90
2018-08-19T12:16:46.232Z,79.40
2018-08-19T12:19:19.247Z,76.90
2018-08-19T12:21:54.463Z,77.60
2018-08-19T12:24:33.789Z,78.00
2018-08-19T12:27:03.870Z,82.60
2018-08-19T12:29:34.045Z,80.90
2018-08-19T12:32:09.714Z,81.10
2018-08-19T12:34:40.020Z,79.40
2018-08-19T12:37:11.129Z,80.20
2018-08-19T12:39:40.606Z,79.30
2018-08-19T12:42:10.580Z,81.00
2018-08-19T12:44:39.942Z,80.40
2018-08-19T12:47:17.136Z,77.60
2018-08-19T12:49:49.852Z,80.30
2018-08-19T12:52:20.904Z,79.00
2018-08-19T12:55:01.968Z,77.30
2018-08-19T12:57:31.221Z,77.70
2018-08-19T13:00:06.627Z,78.10
2018-08-19T13:02:42.246Z,78.10
2018-08-19T13:05:11.540Z,77.70
2018-08-19T13:07:40.894Z,76.60
2018-08-19T13:10:09.952Z,77.50
2018-08-19T13:12:58.313Z,76.00
2018-08-19T13:15:29.505Z,77.10
2018-08-19T13:17:58.741Z,75.90
2018-08-19T13:20:28.668Z,77.50
2018-08-19T13:23:03.992Z,77.10
2018-08-19T13:25:33.320Z,78.80
2018-08-19T13:28:02.398Z,77.20
2018-08-19T13:30:31.387Z,76.30
2018-08-19T13:33:00.668Z,75.90
2018-08-19T13:35:29.728Z,76.00
2018-08-19T13:37:58.673Z,77.70
2018-08-19T13:40:27.745Z,75.00
2018-08-19T13:42:56.816Z,76.20
2018-08-19T13:45:26.914Z,75.80
2018-08-19T13:47:55.888Z,76.30
2018-08-19T13:50:24.967Z,76.00
2018-08-19T13:52:53.988Z,75.60
2018-08-19T13:55:23.017Z,75.20
2018-08-19T13:57:52.073Z,75.00
2018-08-19T14:00:22.787Z,74.00
2018-08-19T14:02:52.121Z,75.40
2018-08-19T14:05:21.115Z,76.50
2018-08-19T14:07:50.120Z,75.70
2018-08-19T14:10:19.091Z,75.80
2018-08-19T14:12:48.121Z,75.50
2018-08-19T14:15:17.054Z,75.80
2018-08-19T14:17:46.120Z,76.80
2018-08-19T14:20:15.198Z,76.20
2018-08-19T14:22:44.170Z,76.40
2018-08-19T14:25:13.140Z,77.30
2018-08-19T14:27:42.175Z,76.00
2018-08-19T14:30:12.261Z,76.60
2018-08-19T14:32:43.541Z,78.10
2018-08-19T14:35:12.495Z,76.10
2018-08-19T14:37:41.668Z,77.50
2018-08-19T14:40:14.863Z,76.00
2018-08-19T14:42:44.016Z,76.40
2018-08-19T14:45:13.179Z,76.20
2018-08-19T14:47:42.232Z,76.40
2018-08-19T14:50:13.652Z,76.90
2018-08-19T14:52:42.698Z,78.20
2018-08-19T14:55:11.719Z,77.80
2018-08-19T14:57:40.720Z,78.60
2018-08-19T15:00:11.668Z,79.20
2018-08-19T15:02:40.988Z,78.30
2018-08-19T15:05:14.260Z,78.20
2018-08-19T15:07:43.293Z,78.20
2018-08-19T15:10:17.229Z,78.20
2018-08-19T15:12:46.296Z,80.10
2018-08-19T15:15:15.212Z,78.20
2018-08-19T15:17:51.410Z,78.90
2018-08-19T15:20:26.650Z,78.50
2018-08-19T15:23:16.624Z,77.90
2018-08-19T15:25:45.850Z,77.70
2018-08-19T15:28:15.103Z,78.20
2018-08-19T15:30:44.135Z,79.10
2018-08-19T15:33:15.571Z,78.00
2018-08-19T15:35:44.710Z,78.10
2018-08-19T15:38:13.754Z,80.10
2018-08-19T15:40:45.777Z,78.00
2018-08-19T15:43:15.116Z,77.70
2018-08-19T15:45:44.652Z,79.00
2018-08-19T15:48:13.650Z,79.60
2018-08-19T15:50:42.607Z,80.50
2018-08-19T15:53:11.636Z,79.30
2018-08-19T15:55:41.106Z,79.80
2018-08-19T15:58:10.179Z,79.30
2018-08-19T16:00:41.341Z,80.40
2018-08-19T16:03:11.298Z,80.90
2018-08-19T16:05:40.334Z,82.90
2018-08-19T16:08:09.441Z,81.10
2018-08-19T16:10:38.628Z,80.00
2018-08-19T16:13:09.327Z,81.10
2018-08-19T16:15:38.405Z,80.50
2018-08-19T16:18:08.040Z,81.00
2018-08-19T16:20:37.268Z,80.70
2018-08-19T16:23:06.444Z,81.10
2018-08-19T16:25:35.535Z,82.20
2018-08-19T16:28:05.585Z,82.20
2018-08-19T16:30:34.616Z,82.20
2018-08-19T16:33:04.294Z,83.30
2018-08-19T16:35:33.377Z,82.90
2018-08-19T16:38:02.608Z,84.20
2018-08-19T16:40:31.931Z,83.90
2018-08-19T16:43:00.938Z,83.70
2018-08-19T16:45:30.074Z,84.10
2018-08-19T16:47:59.141Z,84.80
2018-08-19T16:50:28.554Z,84.00
2018-08-19T16:52:57.480Z,84.30
2018-08-19T16:55:26.546Z,85.00
2018-08-19T16:57:55.518Z,85.30
2018-08-19T17:00:24.541Z,86.30
2018-08-19T17:02:53.677Z,86.30
2018-08-19T17:05:31.335Z,86.40
2018-08-19T17:08:00.389Z,87.10
2018-08-19T17:10:29.972Z,87.40
2018-08-19T17:12:59.097Z,88.00
2018-08-19T17:15:28.399Z,87.70
2018-08-19T17:17:57.512Z,88.60
2018-08-19T17:20:27.636Z,88.20
2018-08-19T17:22:56.572Z,88.50
2018-08-19T17:25:25.563Z,90.00
2018-08-19T17:27:54.483Z,89.00
2018-08-19T17:30:23.504Z,90.10
2018-08-19T17:32:57.143Z,90.20
2018-08-19T17:35:26.110Z,90.20
2018-08-19T17:37:55.147Z,90.30
2018-08-19T17:40:24.204Z,90.70
2018-08-19T17:42:53.355Z,90.60
2018-08-19T17:45:22.401Z,90.80
2018-08-19T17:47:51.436Z,90.90
2018-08-19T17:50:24.671Z,91.50
2018-08-19T17:52:54.780Z,91.40
2018-08-19T17:55:24.294Z,91.50
2018-08-19T17:57:53.608Z,91.80
2018-08-19T18:00:23.042Z,91.80
2018-08-19T18:02:52.416Z,92.30
2018-08-19T18:05:21.612Z,92.40
2018-08-19T18:07:53.878Z,92.70
2018-08-19T18:10:22.904Z,93.00
2018-08-19T18:12:52.245Z,93.20
2018-08-19T18:15:21.252Z,93.60
2018-08-19T18:17:58.423Z,93.40
2018-08-19T18:20:32.514Z,93.50
2018-08-19T18:23:01.516Z,93.70
2018-08-19T18:25:30.930Z,94.20
2018-08-19T18:28:04.752Z,94.10
2018-08-19T18:30:33.763Z,94.10
2018-08-19T18:33:04.187Z,94.60
2018-08-19T18:35:33.351Z,94.40
2018-08-19T18:38:02.360Z,94.70
2018-08-19T18:40:33.403Z,94.70
2018-08-19T18:43:02.835Z,95.00
2018-08-19T18:45:31.740Z,95.10
2018-08-19T18:48:01.797Z,95.30
2018-08-19T18:50:30.884Z,95.60
2018-08-19T18:52:59.905Z,95.50
2018-08-19T18:55:29.088Z,95.70
2018-08-19T18:57:58.035Z,95.90
2018-08-19T19:00:27.759Z,95.90
2018-08-19T19:03:01.190Z,95.90
2018-08-19T19:05:36.376Z,96.20
2018-08-19T19:08:11.332Z,96.20
2018-08-19T19:10:43.580Z,96.40
2018-08-19T19:13:12.603Z,96.70
2018-08-19T19:15:41.634Z,96.80
2018-08-19T19:18:12.077Z,97.10
2018-08-19T19:21:14.436Z,97.50
2018-08-19T19:23:44.225Z,97.60
2018-08-19T19:26:13.196Z,98.10
2018-08-19T19:28:42.223Z,98.10
2018-08-19T19:31:12.160Z,98.30
2018-08-19T19:33:41.112Z,98.70
2018-08-19T19:36:15.803Z,98.90
2018-08-19T19:39:02.089Z,99.10
2018-08-19T19:41:32.480Z,99.40
2018-08-19T19:44:20.024Z,99.60
2018-08-19T19:46:49.027Z,99.70
2018-08-19T19:49:17.977Z,99.90
2018-08-19T19:52:04.435Z,99.90
2018-08-19T19:54:34.280Z,99.90
2018-08-19T19:57:03.267Z,99.90
2018-08-19T19:59:33.714Z,99.90
2018-08-19T20:02:02.735Z,99.90
2018-08-19T20:04:34.652Z,99.90
2018-08-19T20:07:03.723Z,99.90
2018-08-19T20:09:34.971Z,99.90
2018-08-19T20:12:04.083Z,99.90
2018-08-19T20:14:37.372Z,99.90
2018-08-19T20:17:06.549Z,99.90
2018-08-19T20:19:35.560Z,99.90
2018-08-19T20:22:04.556Z,99.90
2018-08-19T20:24:33.588Z,99.90
2018-08-19T20:27:02.575Z,99.90
2018-08-19T20:29:31.864Z,99.90
2018-08-19T20:32:00.840Z,99.90
2018-08-19T20:34:29.850Z,99.90
2018-08-19T20:36:58.876Z,99.90
2018-08-19T20:39:27.921Z,99.90
2018-08-19T20:41:57.082Z,99.90
2018-08-19T20:44:26.056Z,99.90
2018-08-19T20:46:57.505Z,99.90
2018-08-19T20:49:27.416Z,99.90
2018-08-19T20:51:56.612Z,99.90
2018-08-19T20:54:25.596Z,99.90
2018-08-19T20:56:54.613Z,99.90
2018-08-19T20:59:29.012Z,99.90
2018-08-19T21:01:58.003Z,99.90
2018-08-19T21:04:27.028Z,99.90
2018-08-19T21:06:55.988Z,99.90
2018-08-19T21:09:25.015Z,99.90
2018-08-19T21:11:53.964Z,99.90
2018-08-19T21:14:23.013Z,99.90
2018-08-19T21:16:52.010Z,99.90
2018-08-19T21:19:21.343Z,99.90
2018-08-19T21:21:50.379Z,99.90
2018-08-19T21:24:19.348Z,99.90
2018-08-19T21:26:56.500Z,99.90
2018-08-19T21:29:25.535Z,99.90
2018-08-19T21:31:54.520Z,99.90
2018-08-19T21:34:23.620Z,99.90
2018-08-19T21:36:52.618Z,99.90
2018-08-19T21:39:21.619Z,99.90
2018-08-19T21:41:52.040Z,99.90
2018-08-19T21:44:20.980Z,99.90
2018-08-19T21:46:49.917Z,99.90
2018-08-19T21:49:18.820Z,99.90
2018-08-19T21:51:47.755Z,99.90
2018-08-19T21:54:17.575Z,99.90
2018-08-19T21:56:46.592Z,99.90
2018-08-19T21:59:22.576Z,99.90
2018-08-19T22:01:52.603Z,99.90
2018-08-19T22:04:22.900Z,99.90
2018-08-19T22:06:51.896Z,99.90
2018-08-19T22:09:36.779Z,99.90
2018-08-19T22:12:07.593Z,99.90
2018-08-19T22:14:36.523Z,99.90
2018-08-19T22:17:09.665Z,99.90
2018-08-19T22:19:39.103Z,99.90
2018-08-19T22:22:08.277Z,99.90
2018-08-19T22:24:37.411Z,99.90
2018-08-19T22:27:11.716Z,99.90
2018-08-19T22:29:40.653Z,99.90
2018-08-19T22:32:09.598Z,99.90
2018-08-19T22:34:38.580Z,99.90
2018-08-19T22:37:07.556Z,99.90
2018-08-19T22:39:36.477Z,99.90
2018-08-19T22:42:05.458Z,99.90
2018-08-19T22:44:34.439Z,99.90
2018-08-19T22:47:03.501Z,99.90
2018-08-19T22:49:32.441Z,99.90
2018-08-19T22:52:16.984Z,99.90
2018-08-19T22:54:45.950Z,99.90
2018-08-19T22:57:14.980Z,99.90
2018-08-19T22:59:43.923Z,99.90
2018-08-19T23:02:14.589Z,99.90
2018-08-19T23:04:43.896Z,99.90
2018-08-19T23:07:12.903Z,99.90
2018-08-19T23:09:41.935Z,99.90
2018-08-19T23:12:10.899Z,99.90
2018-08-19T23:14:51.343Z,99.90
2018-08-19T23:17:20.420Z,99.90
2018-08-19T23:19:49.985Z,99.90
2018-08-19T23:22:18.960Z,99.90
2018-08-19T23:24:48.140Z,99.90
2018-08-19T23:27:17.120Z,99.90
2018-08-19T23:29:46.173Z,99.90
2018-08-19T23:32:15.108Z,99.90
2018-08-19T23:34:44.104Z,99.90
2018-08-19T23:37:13.123Z,99.90
2018-08-19T23:39:42.075Z,99.90
2018-08-19T23:42:11.095Z,99.90
2018-08-19T23:44:40.090Z,99.90
2018-08-19T23:47:09.095Z,99.90
2018-08-19T23:49:38.077Z,99.90
2018-08-19T23:52:07.032Z,99.90
2018-08-19T23:54:35.975Z,99.90
2018-08-19T23:57:04.915Z,99.90
2018-08-19T23:59:35.355Z,99.90
